RYR4KC EPKK-LIEO
Flight info
| Callsign | RYR4KC |
|---|---|
| Flight time | N/A |
| Altitude | 24000 |
| Route | BABKO DCT VADEX L856 KOPAT/N0426F340 DCT MAREG DCT GIRDA DCT BAXON/N0435F350 DCT GITRI |
| Aircraft | B738/M-SDE2E3FGHIRWXY/LB1 |
Departure
| Time | 2026-05-01 09:27 |
|---|---|
| Airport | Kraków John Paul II International Airport (EPKK) |
Arrival
| Time | N/A |
|---|---|
| Airport | Olbia Costa Smeralda Airport (LIEO) |
| Time | Latitude | Longitude | Altitude | Speed | Heading |
|---|---|---|---|---|---|
| 2026-05-01 09:08 | 50.07480 | 19.80141 | 799 ft | 0 kts | 168° |
| 2026-05-01 09:21 | 50.07468 | 19.80145 | 826 ft | 4 kts | 168° |
| 2026-05-01 09:21 | 50.07435 | 19.80160 | 799 ft | 6 kts | 148° |
| 2026-05-01 09:21 | 50.07435 | 19.80283 | 799 ft | 6 kts | 79° |
| 2026-05-01 09:22 | 50.07476 | 19.80380 | 799 ft | 6 kts | 24° |
| 2026-05-01 09:22 | 50.07558 | 19.80419 | 799 ft | 8 kts | 15° |
| 2026-05-01 09:23 | 50.07622 | 19.80412 | 799 ft | 11 kts | 349° |
| 2026-05-01 09:23 | 50.07764 | 19.80363 | 799 ft | 10 kts | 348° |
| 2026-05-01 09:24 | 50.07846 | 19.80335 | 799 ft | 0 kts | 347° |
| 2026-05-01 09:25 | 50.07889 | 19.80320 | 799 ft | 9 kts | 347° |
| 2026-05-01 09:25 | 50.08013 | 19.80215 | 799 ft | 7 kts | 262° |
| 2026-05-01 09:26 | 50.08012 | 19.80203 | 799 ft | 0 kts | 259° |
| 2026-05-01 09:26 | 50.07986 | 19.80011 | 800 ft | 50 kts | 257° |
| 2026-05-01 09:26 | 50.07856 | 19.79092 | 799 ft | 121 kts | 257° |
| 2026-05-01 09:27 | 50.07391 | 19.75922 | 1980 ft | 150 kts | 257° |
| 2026-05-01 09:27 | 50.07161 | 19.74302 | 2711 ft | 158 kts | 260° |
| 2026-05-01 09:27 | 50.06927 | 19.72468 | 3221 ft | 191 kts | 260° |
| 2026-05-01 09:28 | 50.06614 | 19.70299 | 3494 ft | 219 kts | 256° |
| 2026-05-01 09:28 | 50.05859 | 19.68170 | 3986 ft | 235 kts | 233° |
| 2026-05-01 09:28 | 50.04590 | 19.66467 | 4707 ft | 247 kts | 214° |
| 2026-05-01 09:28 | 50.03042 | 19.65077 | 5211 ft | 271 kts | 205° |
| 2026-05-01 09:29 | 49.99251 | 19.65418 | 6836 ft | 285 kts | 161° |
| 2026-05-01 09:29 | 49.97333 | 19.66368 | 7623 ft | 292 kts | 160° |
| 2026-05-01 09:30 | 49.93382 | 19.67954 | 9366 ft | 300 kts | 164° |
| 2026-05-01 09:30 | 49.91322 | 19.68659 | 10206 ft | 305 kts | 164° |
| 2026-05-01 09:30 | 49.86904 | 19.69293 | 10996 ft | 350 kts | 193° |
| 2026-05-01 09:31 | 49.84654 | 19.67672 | 11509 ft | 363 kts | 211° |
| 2026-05-01 09:31 | 49.82498 | 19.65556 | 12200 ft | 370 kts | 213° |
| 2026-05-01 09:31 | 49.78050 | 19.61413 | 13760 ft | 378 kts | 210° |
| 2026-05-01 09:32 | 49.75746 | 19.59391 | 14416 ft | 384 kts | 209° |
| 2026-05-01 09:32 | 49.71047 | 19.55345 | 15763 ft | 393 kts | 208° |
| 2026-05-01 09:32 | 49.68643 | 19.53284 | 16401 ft | 398 kts | 208° |
| 2026-05-01 09:33 | 49.66206 | 19.51194 | 17040 ft | 403 kts | 208° |
| 2026-05-01 09:33 | 49.63747 | 19.49085 | 17730 ft | 406 kts | 208° |
| 2026-05-01 09:33 | 49.59099 | 19.44031 | 18918 ft | 416 kts | 227° |
| 2026-05-01 09:34 | 49.57131 | 19.40728 | 19441 ft | 420 kts | 229° |
| 2026-05-01 09:34 | 49.55200 | 19.37406 | 19967 ft | 425 kts | 229° |
| 2026-05-01 09:34 | 49.51183 | 19.30623 | 21071 ft | 433 kts | 228° |
| 2026-05-01 09:35 | 49.49118 | 19.27220 | 21537 ft | 438 kts | 227° |
| 2026-05-01 09:35 | 49.44893 | 19.20351 | 22574 ft | 446 kts | 227° |
| 2026-05-01 09:35 | 49.42744 | 19.16878 | 23064 ft | 451 kts | 227° |
| 2026-05-01 09:36 | 49.40602 | 19.13421 | 23586 ft | 454 kts | 227° |
| 2026-05-01 09:36 | 49.38416 | 19.09896 | 24036 ft | 458 kts | 226° |
| 2026-05-01 09:36 | 49.36211 | 19.06343 | 24445 ft | 462 kts | 226° |
| 2026-05-01 09:36 | 49.33984 | 19.02758 | 24890 ft | 464 kts | 226° |
| 2026-05-01 09:37 | 49.31750 | 18.99167 | 25358 ft | 466 kts | 226° |
| 2026-05-01 09:37 | 49.27248 | 18.91940 | 26185 ft | 472 kts | 226° |
| 2026-05-01 09:37 | 49.24977 | 18.88305 | 26562 ft | 475 kts | 226° |
| 2026-05-01 09:38 | 49.20409 | 18.81011 | 27353 ft | 480 kts | 226° |
| 2026-05-01 09:38 | 49.18100 | 18.77330 | 27743 ft | 482 kts | 226° |
| 2026-05-01 09:38 | 49.15772 | 18.73622 | 28120 ft | 485 kts | 226° |
| 2026-05-01 09:39 | 49.11065 | 18.66137 | 28825 ft | 490 kts | 227° |
| 2026-05-01 09:39 | 49.08791 | 18.62246 | 29166 ft | 493 kts | 231° |
| 2026-05-01 09:39 | 49.06610 | 18.58198 | 29524 ft | 495 kts | 232° |
| 2026-05-01 09:40 | 49.04467 | 18.54080 | 29842 ft | 497 kts | 233° |
| 2026-05-01 09:40 | 49.00193 | 18.45816 | 30433 ft | 503 kts | 233° |
| 2026-05-01 09:40 | 48.98016 | 18.41652 | 30700 ft | 505 kts | 232° |
| 2026-05-01 09:41 | 48.95816 | 18.37479 | 30949 ft | 506 kts | 232° |
| 2026-05-01 09:41 | 48.91391 | 18.29167 | 31663 ft | 504 kts | 232° |
| 2026-05-01 09:41 | 48.89172 | 18.25020 | 32030 ft | 504 kts | 232° |
| 2026-05-01 09:42 | 48.86963 | 18.20899 | 32399 ft | 503 kts | 232° |
| 2026-05-01 09:42 | 48.84780 | 18.16831 | 32707 ft | 503 kts | 232° |
| 2026-05-01 09:42 | 48.80353 | 18.08593 | 33323 ft | 504 kts | 232° |
| 2026-05-01 09:43 | 48.75924 | 18.00371 | 34030 ft | 502 kts | 231° |
| 2026-05-01 09:43 | 48.73717 | 17.96284 | 34327 ft | 503 kts | 231° |
| 2026-05-01 09:43 | 48.71488 | 17.92162 | 34388 ft | 508 kts | 231° |
| 2026-05-01 09:44 | 48.64679 | 17.79612 | 34388 ft | 521 kts | 231° |
| 2026-05-01 09:45 | 48.60081 | 17.71171 | 34374 ft | 523 kts | 231° |
| 2026-05-01 09:45 | 48.53132 | 17.58464 | 34377 ft | 523 kts | 231° |
| 2026-05-01 09:46 | 48.48508 | 17.50042 | 34378 ft | 522 kts | 231° |
| 2026-05-01 09:46 | 48.43872 | 17.41625 | 34393 ft | 521 kts | 231° |
| 2026-05-01 09:47 | 48.39278 | 17.33308 | 34391 ft | 519 kts | 231° |
| 2026-05-01 09:47 | 48.34653 | 17.24962 | 34396 ft | 518 kts | 230° |
| 2026-05-01 09:48 | 48.30040 | 17.16664 | 34402 ft | 517 kts | 230° |
| 2026-05-01 09:48 | 48.25433 | 17.08399 | 34393 ft | 516 kts | 230° |
| 2026-05-01 09:49 | 48.20852 | 17.00206 | 34400 ft | 515 kts | 230° |
| 2026-05-01 09:49 | 48.15664 | 16.92854 | 34418 ft | 513 kts | 214° |
| 2026-05-01 09:50 | 48.09861 | 16.86604 | 34425 ft | 514 kts | 214° |
| 2026-05-01 09:50 | 48.04059 | 16.80325 | 34421 ft | 515 kts | 214° |
| 2026-05-01 09:51 | 47.98313 | 16.74017 | 34423 ft | 517 kts | 215° |
| 2026-05-01 09:51 | 47.92529 | 16.67642 | 34417 ft | 518 kts | 215° |
| 2026-05-01 09:52 | 47.86723 | 16.61258 | 34416 ft | 519 kts | 215° |
| 2026-05-01 09:52 | 47.80908 | 16.54889 | 34404 ft | 519 kts | 215° |
| 2026-05-01 09:53 | 47.75119 | 16.48570 | 34411 ft | 520 kts | 214° |
| 2026-05-01 09:53 | 47.69290 | 16.42227 | 34401 ft | 520 kts | 214° |
| 2026-05-01 09:54 | 47.63454 | 16.35893 | 34405 ft | 520 kts | 214° |
| 2026-05-01 09:54 | 47.57615 | 16.29575 | 34408 ft | 520 kts | 214° |
| 2026-05-01 09:55 | 47.51809 | 16.23308 | 34390 ft | 520 kts | 214° |
| 2026-05-01 09:55 | 47.45967 | 16.17022 | 34395 ft | 519 kts | 214° |
| 2026-05-01 09:56 | 47.40122 | 16.10749 | 34385 ft | 519 kts | 214° |
| 2026-05-01 09:56 | 47.34278 | 16.04495 | 34385 ft | 519 kts | 214° |
| 2026-05-01 09:57 | 47.28478 | 15.98306 | 34390 ft | 518 kts | 214° |
| 2026-05-01 09:57 | 47.22630 | 15.92082 | 34385 ft | 518 kts | 214° |
| 2026-05-01 09:58 | 47.16787 | 15.85881 | 34384 ft | 518 kts | 214° |
| 2026-05-01 09:58 | 47.10934 | 15.79687 | 34390 ft | 519 kts | 214° |
| 2026-05-01 09:59 | 47.05112 | 15.73542 | 34391 ft | 519 kts | 214° |
| 2026-05-01 09:59 | 46.99250 | 15.67373 | 34399 ft | 519 kts | 214° |
| 2026-05-01 10:00 | 46.93368 | 15.61199 | 34397 ft | 520 kts | 213° |
| 2026-05-01 10:00 | 46.87491 | 15.55048 | 34396 ft | 520 kts | 213° |
| 2026-05-01 10:01 | 46.81598 | 15.48896 | 34399 ft | 521 kts | 213° |
| 2026-05-01 10:01 | 46.75744 | 15.42801 | 34370 ft | 521 kts | 213° |
| 2026-05-01 10:02 | 46.69844 | 15.36674 | 34380 ft | 521 kts | 213° |
| 2026-05-01 10:02 | 46.63944 | 15.30569 | 34387 ft | 521 kts | 213° |
| 2026-05-01 10:03 | 46.58029 | 15.24468 | 34398 ft | 521 kts | 213° |
| 2026-05-01 10:03 | 46.52111 | 15.18373 | 34398 ft | 522 kts | 213° |
| 2026-05-01 10:04 | 46.46233 | 15.12334 | 34393 ft | 522 kts | 213° |
| 2026-05-01 10:04 | 46.40294 | 15.06251 | 34380 ft | 522 kts | 213° |
| 2026-05-01 10:05 | 46.34367 | 15.00196 | 34397 ft | 521 kts | 213° |
| 2026-05-01 10:05 | 46.28436 | 14.94157 | 34383 ft | 521 kts | 213° |
| 2026-05-01 10:06 | 46.22547 | 14.88177 | 34397 ft | 519 kts | 213° |
| 2026-05-01 10:06 | 46.16633 | 14.82185 | 34391 ft | 519 kts | 214° |
| 2026-05-01 10:07 | 46.10727 | 14.76215 | 34394 ft | 519 kts | 213° |
| 2026-05-01 10:07 | 46.04800 | 14.70242 | 34390 ft | 520 kts | 213° |
| 2026-05-01 10:08 | 45.95940 | 14.61344 | 34385 ft | 520 kts | 214° |
| 2026-05-01 10:09 | 45.90003 | 14.55400 | 34389 ft | 520 kts | 214° |
| 2026-05-01 10:09 | 45.84070 | 14.49477 | 34396 ft | 519 kts | 214° |
| 2026-05-01 10:10 | 45.78131 | 14.43563 | 34398 ft | 519 kts | 214° |
| 2026-05-01 10:10 | 45.69275 | 14.34773 | 34382 ft | 519 kts | 214° |
| 2026-05-01 10:11 | 45.63348 | 14.28910 | 34383 ft | 519 kts | 214° |
| 2026-05-01 10:11 | 45.57412 | 14.23052 | 34374 ft | 518 kts | 214° |
| 2026-05-01 10:12 | 45.52486 | 14.18201 | 34380 ft | 518 kts | 214° |
| 2026-05-01 10:13 | 45.42173 | 14.09543 | 34383 ft | 515 kts | 202° |
| 2026-05-01 10:13 | 45.35625 | 14.05521 | 34381 ft | 516 kts | 201° |
| 2026-05-01 10:14 | 45.25757 | 13.99373 | 34374 ft | 516 kts | 202° |
| 2026-05-01 10:14 | 45.19211 | 13.95187 | 34366 ft | 516 kts | 203° |
| 2026-05-01 10:15 | 45.12671 | 13.91000 | 34371 ft | 516 kts | 203° |
| 2026-05-01 10:15 | 45.06174 | 13.86857 | 34371 ft | 515 kts | 203° |
| 2026-05-01 10:16 | 44.99637 | 13.82706 | 34379 ft | 515 kts | 203° |
| 2026-05-01 10:17 | 44.89841 | 13.76507 | 34379 ft | 514 kts | 204° |
| 2026-05-01 10:17 | 44.80060 | 13.70338 | 34373 ft | 513 kts | 204° |
| 2026-05-01 10:18 | 44.70353 | 13.64239 | 34364 ft | 511 kts | 204° |
| 2026-05-01 10:19 | 44.63874 | 13.60181 | 34367 ft | 509 kts | 204° |
| 2026-05-01 10:19 | 44.57415 | 13.56144 | 34369 ft | 507 kts | 204° |
| 2026-05-01 10:20 | 44.47816 | 13.50163 | 34374 ft | 504 kts | 204° |
| 2026-05-01 10:20 | 44.41454 | 13.46100 | 34361 ft | 501 kts | 208° |
| 2026-05-01 10:21 | 44.32960 | 13.37766 | 34366 ft | 495 kts | 219° |
| 2026-05-01 10:22 | 44.24729 | 13.29226 | 34367 ft | 493 kts | 218° |
| 2026-05-01 10:23 | 44.16417 | 13.20825 | 34371 ft | 491 kts | 218° |
| 2026-05-01 10:23 | 44.08113 | 13.12498 | 34370 ft | 490 kts | 218° |